sensor_id;sensor_type;location;lat;lon;timestamp;P1;durP1;ratioP1;P2;durP2;ratioP2
60292;SDS011;52402;52.670;6.750;2023-08-20T00:00:50;1.80;;;1.70;;
60292;SDS011;52402;52.670;6.750;2023-08-20T00:03:17;2.05;;;1.95;;
60292;SDS011;52402;52.670;6.750;2023-08-20T00:05:43;1.52;;;1.42;;
60292;SDS011;52402;52.670;6.750;2023-08-20T00:08:09;2.20;;;2.10;;
60292;SDS011;52402;52.670;6.750;2023-08-20T00:10:34;1.63;;;1.52;;
60292;SDS011;52402;52.670;6.750;2023-08-20T00:13:00;1.80;;;1.70;;
60292;SDS011;52402;52.670;6.750;2023-08-20T00:15:26;1.80;;;1.70;;
60292;SDS011;52402;52.670;6.750;2023-08-20T00:17:53;1.60;;;1.50;;
60292;SDS011;52402;52.670;6.750;2023-08-20T00:20:20;1.60;;;1.50;;
60292;SDS011;52402;52.670;6.750;2023-08-20T00:22:46;1.55;;;1.45;;
60292;SDS011;52402;52.670;6.750;2023-08-20T00:25:27;1.58;;;1.48;;
60292;SDS011;52402;52.670;6.750;2023-08-20T00:27:53;1.60;;;1.50;;
60292;SDS011;52402;52.670;6.750;2023-08-20T00:30:18;1.73;;;1.63;;
60292;SDS011;52402;52.670;6.750;2023-08-20T00:32:44;2.10;;;2.00;;
60292;SDS011;52402;52.670;6.750;2023-08-20T00:35:09;2.28;;;2.17;;
60292;SDS011;52402;52.670;6.750;2023-08-20T00:37:35;1.98;;;1.88;;
60292;SDS011;52402;52.670;6.750;2023-08-20T00:40:01;2.10;;;2.00;;
60292;SDS011;52402;52.670;6.750;2023-08-20T00:42:30;2.35;;;2.25;;
60292;SDS011;52402;52.670;6.750;2023-08-20T00:44:55;1.85;;;1.75;;
60292;SDS011;52402;52.670;6.750;2023-08-20T00:47:21;1.90;;;1.80;;
60292;SDS011;52402;52.670;6.750;2023-08-20T00:49:47;1.50;;;1.40;;
60292;SDS011;52402;52.670;6.750;2023-08-20T00:52:13;1.55;;;1.45;;
60292;SDS011;52402;52.670;6.750;2023-08-20T00:54:41;1.70;;;1.60;;
60292;SDS011;52402;52.670;6.750;2023-08-20T00:57:13;2.35;;;2.25;;
60292;SDS011;52402;52.670;6.750;2023-08-20T00:59:40;1.73;;;1.63;;
60292;SDS011;52402;52.670;6.750;2023-08-20T01:02:06;1.70;;;1.60;;
60292;SDS011;52402;52.670;6.750;2023-08-20T01:04:32;2.20;;;2.10;;
60292;SDS011;52402;52.670;6.750;2023-08-20T01:07:17;2.40;;;2.28;;
60292;SDS011;52402;52.670;6.750;2023-08-20T01:12:35;1.88;;;1.77;;
60292;SDS011;52402;52.670;6.750;2023-08-20T01:15:01;1.95;;;1.85;;
60292;SDS011;52402;52.670;6.750;2023-08-20T01:17:27;1.70;;;1.60;;
60292;SDS011;52402;52.670;6.750;2023-08-20T01:19:52;1.80;;;1.70;;
60292;SDS011;52402;52.670;6.750;2023-08-20T01:27:53;2.03;;;1.92;;
60292;SDS011;52402;52.670;6.750;2023-08-20T01:30:28;1.88;;;1.77;;
60292;SDS011;52402;52.670;6.750;2023-08-20T01:32:54;1.95;;;1.85;;
60292;SDS011;52402;52.670;6.750;2023-08-20T01:35:22;1.75;;;1.65;;
60292;SDS011;52402;52.670;6.750;2023-08-20T01:37:51;1.83;;;1.73;;
60292;SDS011;52402;52.670;6.750;2023-08-20T01:40:17;1.75;;;1.65;;
60292;SDS011;52402;52.670;6.750;2023-08-20T01:42:43;1.80;;;1.70;;
60292;SDS011;52402;52.670;6.750;2023-08-20T01:45:08;2.03;;;1.92;;
60292;SDS011;52402;52.670;6.750;2023-08-20T01:47:35;2.58;;;2.38;;
60292;SDS011;52402;52.670;6.750;2023-08-20T01:50:01;2.30;;;2.20;;
60292;SDS011;52402;52.670;6.750;2023-08-20T01:52:27;1.90;;;1.80;;
60292;SDS011;52402;52.670;6.750;2023-08-20T01:54:54;2.30;;;2.20;;
60292;SDS011;52402;52.670;6.750;2023-08-20T01:57:30;2.15;;;2.05;;
60292;SDS011;52402;52.670;6.750;2023-08-20T01:59:56;1.90;;;1.80;;
60292;SDS011;52402;52.670;6.750;2023-08-20T02:02:24;2.00;;;1.90;;
60292;SDS011;52402;52.670;6.750;2023-08-20T02:04:50;1.70;;;1.60;;
60292;SDS011;52402;52.670;6.750;2023-08-20T02:07:15;1.60;;;1.50;;
60292;SDS011;52402;52.670;6.750;2023-08-20T02:09:42;1.90;;;1.80;;
60292;SDS011;52402;52.670;6.750;2023-08-20T02:12:08;1.83;;;1.73;;
60292;SDS011;52402;52.670;6.750;2023-08-20T02:14:34;1.65;;;1.55;;
60292;SDS011;52402;52.670;6.750;2023-08-20T02:17:03;2.00;;;1.90;;
60292;SDS011;52402;52.670;6.750;2023-08-20T02:19:29;2.00;;;1.90;;
60292;SDS011;52402;52.670;6.750;2023-08-20T02:21:55;2.22;;;2.13;;
60292;SDS011;52402;52.670;6.750;2023-08-20T02:24:21;2.10;;;2.00;;
60292;SDS011;52402;52.670;6.750;2023-08-20T02:26:46;1.75;;;1.65;;
60292;SDS011;52402;52.670;6.750;2023-08-20T02:29:12;1.60;;;1.50;;
60292;SDS011;52402;52.670;6.750;2023-08-20T02:31:38;2.42;;;2.28;;
60292;SDS011;52402;52.670;6.750;2023-08-20T02:34:03;1.95;;;1.85;;
60292;SDS011;52402;52.670;6.750;2023-08-20T02:36:29;2.00;;;1.90;;
60292;SDS011;52402;52.670;6.750;2023-08-20T02:38:55;1.83;;;1.73;;
60292;SDS011;52402;52.670;6.750;2023-08-20T02:41:20;2.08;;;1.98;;
60292;SDS011;52402;52.670;6.750;2023-08-20T02:43:47;1.90;;;1.80;;
60292;SDS011;52402;52.670;6.750;2023-08-20T02:46:12;1.85;;;1.75;;
60292;SDS011;52402;52.670;6.750;2023-08-20T02:48:38;1.50;;;1.40;;
60292;SDS011;52402;52.670;6.750;2023-08-20T02:51:04;1.63;;;1.52;;
60292;SDS011;52402;52.670;6.750;2023-08-20T02:53:31;1.80;;;1.70;;
60292;SDS011;52402;52.670;6.750;2023-08-20T02:55:56;1.70;;;1.60;;
60292;SDS011;52402;52.670;6.750;2023-08-20T02:58:22;2.20;;;2.10;;
60292;SDS011;52402;52.670;6.750;2023-08-20T03:00:48;1.83;;;1.73;;
60292;SDS011;52402;52.670;6.750;2023-08-20T03:03:13;1.67;;;1.58;;
60292;SDS011;52402;52.670;6.750;2023-08-20T03:05:39;1.63;;;1.52;;
60292;SDS011;52402;52.670;6.750;2023-08-20T03:08:05;1.20;;;1.20;;
60292;SDS011;52402;52.670;6.750;2023-08-20T03:10:31;1.50;;;1.40;;
60292;SDS011;52402;52.670;6.750;2023-08-20T03:13:03;1.40;;;1.30;;
60292;SDS011;52402;52.670;6.750;2023-08-20T03:15:29;1.60;;;1.50;;
60292;SDS011;52402;52.670;6.750;2023-08-20T03:17:55;1.70;;;1.60;;
60292;SDS011;52402;52.670;6.750;2023-08-20T03:20:20;1.50;;;1.40;;
60292;SDS011;52402;52.670;6.750;2023-08-20T03:22:46;1.73;;;1.63;;
60292;SDS011;52402;52.670;6.750;2023-08-20T03:25:12;1.67;;;1.58;;
60292;SDS011;52402;52.670;6.750;2023-08-20T03:27:37;1.40;;;1.30;;
60292;SDS011;52402;52.670;6.750;2023-08-20T03:30:03;1.52;;;1.42;;
60292;SDS011;52402;52.670;6.750;2023-08-20T03:32:30;1.77;;;1.67;;
60292;SDS011;52402;52.670;6.750;2023-08-20T03:34:56;1.45;;;1.35;;
60292;SDS011;52402;52.670;6.750;2023-08-20T03:37:24;1.98;;;1.88;;
60292;SDS011;52402;52.670;6.750;2023-08-20T03:39:50;1.77;;;1.67;;
60292;SDS011;52402;52.670;6.750;2023-08-20T03:42:16;1.77;;;1.67;;
60292;SDS011;52402;52.670;6.750;2023-08-20T03:44:42;1.48;;;1.38;;
60292;SDS011;52402;52.670;6.750;2023-08-20T03:47:07;2.00;;;1.90;;
60292;SDS011;52402;52.670;6.750;2023-08-20T03:49:33;1.40;;;1.30;;
60292;SDS011;52402;52.670;6.750;2023-08-20T03:51:59;1.50;;;1.40;;
60292;SDS011;52402;52.670;6.750;2023-08-20T03:54:27;1.40;;;1.30;;
60292;SDS011;52402;52.670;6.750;2023-08-20T03:56:53;1.67;;;1.58;;
60292;SDS011;52402;52.670;6.750;2023-08-20T03:59:19;1.40;;;1.30;;
60292;SDS011;52402;52.670;6.750;2023-08-20T04:01:45;1.67;;;1.58;;
60292;SDS011;52402;52.670;6.750;2023-08-20T04:04:10;1.80;;;1.70;;
60292;SDS011;52402;52.670;6.750;2023-08-20T04:06:36;1.60;;;1.50;;
60292;SDS011;52402;52.670;6.750;2023-08-20T04:09:02;1.23;;;1.20;;
60292;SDS011;52402;52.670;6.750;2023-08-20T04:11:28;1.45;;;1.35;;
60292;SDS011;52402;52.670;6.750;2023-08-20T04:13:53;1.30;;;1.23;;
60292;SDS011;52402;52.670;6.750;2023-08-20T04:16:19;1.35;;;1.25;;
60292;SDS011;52402;52.670;6.750;2023-08-20T04:18:45;1.90;;;1.80;;
60292;SDS011;52402;52.670;6.750;2023-08-20T04:21:10;1.58;;;1.48;;
60292;SDS011;52402;52.670;6.750;2023-08-20T04:23:36;1.40;;;1.30;;
60292;SDS011;52402;52.670;6.750;2023-08-20T04:26:02;2.00;;;1.90;;
60292;SDS011;52402;52.670;6.750;2023-08-20T04:28:27;1.63;;;1.52;;
60292;SDS011;52402;52.670;6.750;2023-08-20T04:30:53;1.60;;;1.50;;
60292;SDS011;52402;52.670;6.750;2023-08-20T04:33:19;1.55;;;1.45;;
60292;SDS011;52402;52.670;6.750;2023-08-20T04:35:45;1.70;;;1.60;;
60292;SDS011;52402;52.670;6.750;2023-08-20T04:38:11;1.80;;;1.70;;
60292;SDS011;52402;52.670;6.750;2023-08-20T04:40:37;1.90;;;1.80;;
60292;SDS011;52402;52.670;6.750;2023-08-20T04:43:03;1.60;;;1.50;;
60292;SDS011;52402;52.670;6.750;2023-08-20T04:45:28;1.70;;;1.60;;
60292;SDS011;52402;52.670;6.750;2023-08-20T04:47:54;1.92;;;1.83;;
60292;SDS011;52402;52.670;6.750;2023-08-20T04:50:19;1.50;;;1.40;;
60292;SDS011;52402;52.670;6.750;2023-08-20T04:52:45;1.25;;;1.20;;
60292;SDS011;52402;52.670;6.750;2023-08-20T04:55:11;1.50;;;1.40;;
60292;SDS011;52402;52.670;6.750;2023-08-20T04:57:37;1.30;;;1.23;;
60292;SDS011;52402;52.670;6.750;2023-08-20T05:00:02;1.45;;;1.35;;
60292;SDS011;52402;52.670;6.750;2023-08-20T05:02:28;1.48;;;1.38;;
60292;SDS011;52402;52.670;6.750;2023-08-20T05:04:54;1.60;;;1.50;;
60292;SDS011;52402;52.670;6.750;2023-08-20T05:07:20;1.33;;;1.27;;
60292;SDS011;52402;52.670;6.750;2023-08-20T05:09:46;1.10;;;1.10;;
60292;SDS011;52402;52.670;6.750;2023-08-20T05:12:11;1.50;;;1.40;;
60292;SDS011;52402;52.670;6.750;2023-08-20T05:14:37;1.80;;;1.70;;
60292;SDS011;52402;52.670;6.750;2023-08-20T05:17:02;1.60;;;1.50;;
60292;SDS011;52402;52.670;6.750;2023-08-20T05:19:28;1.30;;;1.20;;
60292;SDS011;52402;52.670;6.750;2023-08-20T05:21:54;1.95;;;1.85;;
60292;SDS011;52402;52.670;6.750;2023-08-20T05:24:23;1.80;;;1.70;;
60292;SDS011;52402;52.670;6.750;2023-08-20T05:29:34;2.22;;;2.13;;
60292;SDS011;52402;52.670;6.750;2023-08-20T05:32:01;2.10;;;2.00;;
60292;SDS011;52402;52.670;6.750;2023-08-20T05:34:27;2.10;;;2.00;;
60292;SDS011;52402;52.670;6.750;2023-08-20T05:36:52;2.40;;;2.28;;
60292;SDS011;52402;52.670;6.750;2023-08-20T05:39:18;2.00;;;1.90;;
60292;SDS011;52402;52.670;6.750;2023-08-20T05:41:43;2.10;;;2.00;;
60292;SDS011;52402;52.670;6.750;2023-08-20T05:44:09;2.05;;;1.95;;
60292;SDS011;52402;52.670;6.750;2023-08-20T05:46:35;1.92;;;1.83;;
60292;SDS011;52402;52.670;6.750;2023-08-20T05:49:01;1.70;;;1.60;;
60292;SDS011;52402;52.670;6.750;2023-08-20T05:51:26;1.80;;;1.70;;
60292;SDS011;52402;52.670;6.750;2023-08-20T05:53:52;2.17;;;2.08;;
60292;SDS011;52402;52.670;6.750;2023-08-20T05:56:20;1.63;;;1.52;;
60292;SDS011;52402;52.670;6.750;2023-08-20T05:58:56;2.05;;;1.95;;
60292;SDS011;52402;52.670;6.750;2023-08-20T06:01:22;2.28;;;2.17;;
60292;SDS011;52402;52.670;6.750;2023-08-20T06:03:47;2.00;;;1.90;;
60292;SDS011;52402;52.670;6.750;2023-08-20T06:06:13;2.28;;;2.17;;
60292;SDS011;52402;52.670;6.750;2023-08-20T06:08:41;2.00;;;1.90;;
60292;SDS011;52402;52.670;6.750;2023-08-20T06:14:09;2.22;;;2.13;;
60292;SDS011;52402;52.670;6.750;2023-08-20T06:16:35;2.33;;;2.22;;
60292;SDS011;52402;52.670;6.750;2023-08-20T06:19:01;2.30;;;2.20;;
60292;SDS011;52402;52.670;6.750;2023-08-20T06:21:26;2.00;;;1.90;;
60292;SDS011;52402;52.670;6.750;2023-08-20T06:23:52;1.92;;;1.83;;
60292;SDS011;52402;52.670;6.750;2023-08-20T06:26:18;2.15;;;2.05;;
60292;SDS011;52402;52.670;6.750;2023-08-20T06:28:45;1.90;;;1.80;;
60292;SDS011;52402;52.670;6.750;2023-08-20T06:31:11;1.95;;;1.85;;
60292;SDS011;52402;52.670;6.750;2023-08-20T06:33:36;2.10;;;2.00;;
60292;SDS011;52402;52.670;6.750;2023-08-20T06:36:03;2.15;;;2.05;;
60292;SDS011;52402;52.670;6.750;2023-08-20T06:38:29;2.28;;;2.17;;
60292;SDS011;52402;52.670;6.750;2023-08-20T06:40:55;2.10;;;2.00;;
60292;SDS011;52402;52.670;6.750;2023-08-20T06:43:21;2.00;;;1.90;;
60292;SDS011;52402;52.670;6.750;2023-08-20T06:45:46;2.13;;;2.03;;
60292;SDS011;52402;52.670;6.750;2023-08-20T06:48:12;2.05;;;1.95;;
60292;SDS011;52402;52.670;6.750;2023-08-20T06:50:38;1.90;;;1.80;;
60292;SDS011;52402;52.670;6.750;2023-08-20T06:53:03;1.70;;;1.60;;
60292;SDS011;52402;52.670;6.750;2023-08-20T06:55:30;1.90;;;1.80;;
60292;SDS011;52402;52.670;6.750;2023-08-20T06:57:56;1.90;;;1.80;;
60292;SDS011;52402;52.670;6.750;2023-08-20T07:00:21;1.92;;;1.83;;
60292;SDS011;52402;52.670;6.750;2023-08-20T07:02:47;2.08;;;1.98;;
60292;SDS011;52402;52.670;6.750;2023-08-20T07:05:12;1.63;;;1.52;;
60292;SDS011;52402;52.670;6.750;2023-08-20T07:07:39;1.67;;;1.58;;
60292;SDS011;52402;52.670;6.750;2023-08-20T07:10:05;1.77;;;1.67;;
60292;SDS011;52402;52.670;6.750;2023-08-20T07:12:31;1.77;;;1.67;;
60292;SDS011;52402;52.670;6.750;2023-08-20T07:14:57;1.70;;;1.60;;
60292;SDS011;52402;52.670;6.750;2023-08-20T07:17:22;1.50;;;1.40;;
60292;SDS011;52402;52.670;6.750;2023-08-20T07:19:48;1.67;;;1.58;;
60292;SDS011;52402;52.670;6.750;2023-08-20T07:22:13;1.67;;;1.58;;
60292;SDS011;52402;52.670;6.750;2023-08-20T07:24:39;1.60;;;1.50;;
60292;SDS011;52402;52.670;6.750;2023-08-20T07:27:05;1.70;;;1.60;;
60292;SDS011;52402;52.670;6.750;2023-08-20T07:29:36;1.65;;;1.55;;
60292;SDS011;52402;52.670;6.750;2023-08-20T07:32:01;1.60;;;1.50;;
60292;SDS011;52402;52.670;6.750;2023-08-20T07:34:28;1.45;;;1.35;;
60292;SDS011;52402;52.670;6.750;2023-08-20T07:36:55;1.75;;;1.65;;
60292;SDS011;52402;52.670;6.750;2023-08-20T07:39:21;1.50;;;1.40;;
60292;SDS011;52402;52.670;6.750;2023-08-20T07:41:47;1.83;;;1.73;;
60292;SDS011;52402;52.670;6.750;2023-08-20T07:44:13;1.58;;;1.48;;
60292;SDS011;52402;52.670;6.750;2023-08-20T07:46:38;1.50;;;1.40;;
60292;SDS011;52402;52.670;6.750;2023-08-20T07:49:04;1.60;;;1.50;;
60292;SDS011;52402;52.670;6.750;2023-08-20T07:51:30;1.60;;;1.50;;
60292;SDS011;52402;52.670;6.750;2023-08-20T07:53:55;1.83;;;1.73;;
60292;SDS011;52402;52.670;6.750;2023-08-20T07:56:23;1.80;;;1.70;;
60292;SDS011;52402;52.670;6.750;2023-08-20T07:58:48;1.60;;;1.50;;
60292;SDS011;52402;52.670;6.750;2023-08-20T08:01:14;1.85;;;1.75;;
60292;SDS011;52402;52.670;6.750;2023-08-20T08:03:40;1.70;;;1.60;;
60292;SDS011;52402;52.670;6.750;2023-08-20T08:06:06;2.15;;;2.05;;
60292;SDS011;52402;52.670;6.750;2023-08-20T08:08:31;1.80;;;1.70;;
60292;SDS011;52402;52.670;6.750;2023-08-20T08:10:57;2.00;;;1.90;;
60292;SDS011;52402;52.670;6.750;2023-08-20T08:13:23;1.90;;;1.80;;
60292;SDS011;52402;52.670;6.750;2023-08-20T08:15:48;2.10;;;2.00;;
60292;SDS011;52402;52.670;6.750;2023-08-20T08:18:15;2.20;;;2.10;;
60292;SDS011;52402;52.670;6.750;2023-08-20T08:20:40;2.13;;;2.03;;
60292;SDS011;52402;52.670;6.750;2023-08-20T08:23:06;2.22;;;2.13;;
60292;SDS011;52402;52.670;6.750;2023-08-20T08:25:32;2.00;;;1.90;;
60292;SDS011;52402;52.670;6.750;2023-08-20T08:27:57;2.30;;;2.20;;
60292;SDS011;52402;52.670;6.750;2023-08-20T08:30:23;2.10;;;2.00;;
60292;SDS011;52402;52.670;6.750;2023-08-20T08:32:49;2.30;;;2.20;;
60292;SDS011;52402;52.670;6.750;2023-08-20T08:35:14;2.60;;;2.40;;
60292;SDS011;52402;52.670;6.750;2023-08-20T08:37:41;2.60;;;2.40;;
60292;SDS011;52402;52.670;6.750;2023-08-20T08:40:07;2.58;;;2.38;;
60292;SDS011;52402;52.670;6.750;2023-08-20T08:42:34;3.05;;;2.85;;
60292;SDS011;52402;52.670;6.750;2023-08-20T08:45:00;3.05;;;2.85;;
60292;SDS011;52402;52.670;6.750;2023-08-20T08:47:26;2.60;;;2.40;;
60292;SDS011;52402;52.670;6.750;2023-08-20T08:49:53;2.80;;;2.60;;
60292;SDS011;52402;52.670;6.750;2023-08-20T08:52:21;3.30;;;3.10;;
60292;SDS011;52402;52.670;6.750;2023-08-20T08:54:48;2.95;;;2.75;;
60292;SDS011;52402;52.670;6.750;2023-08-20T08:57:14;3.25;;;3.05;;
60292;SDS011;52402;52.670;6.750;2023-08-20T08:59:41;3.15;;;2.95;;
60292;SDS011;52402;52.670;6.750;2023-08-20T09:02:07;3.20;;;3.00;;
60292;SDS011;52402;52.670;6.750;2023-08-20T09:04:35;3.13;;;2.92;;
60292;SDS011;52402;52.670;6.750;2023-08-20T09:07:04;3.45;;;3.25;;
60292;SDS011;52402;52.670;6.750;2023-08-20T09:09:29;3.67;;;3.42;;
60292;SDS011;52402;52.670;6.750;2023-08-20T09:11:56;4.43;;;4.13;;
60292;SDS011;52402;52.670;6.750;2023-08-20T09:14:27;3.55;;;3.35;;
60292;SDS011;52402;52.670;6.750;2023-08-20T09:16:58;4.10;;;3.80;;
60292;SDS011;52402;52.670;6.750;2023-08-20T09:19:29;4.13;;;3.83;;
60292;SDS011;52402;52.670;6.750;2023-08-20T09:21:59;3.78;;;3.47;;
60292;SDS011;52402;52.670;6.750;2023-08-20T09:24:39;4.45;;;4.15;;
60292;SDS011;52402;52.670;6.750;2023-08-20T09:27:05;5.07;;;4.78;;
60292;SDS011;52402;52.670;6.750;2023-08-20T09:30:13;4.40;;;4.10;;
60292;SDS011;52402;52.670;6.750;2023-08-20T09:34:50;4.38;;;4.07;;
60292;SDS011;52402;52.670;6.750;2023-08-20T09:39:46;4.80;;;4.50;;
60292;SDS011;52402;52.670;6.750;2023-08-20T09:42:13;4.70;;;4.40;;
60292;SDS011;52402;52.670;6.750;2023-08-20T09:44:40;4.70;;;4.40;;
60292;SDS011;52402;52.670;6.750;2023-08-20T09:47:10;5.30;;;4.90;;
60292;SDS011;52402;52.670;6.750;2023-08-20T09:49:38;5.47;;;5.07;;
60292;SDS011;52402;52.670;6.750;2023-08-20T09:52:05;5.07;;;4.68;;
60292;SDS011;52402;52.670;6.750;2023-08-20T09:57:26;6.05;;;5.65;;
60292;SDS011;52402;52.670;6.750;2023-08-20T09:59:53;5.47;;;5.07;;
60292;SDS011;52402;52.670;6.750;2023-08-20T10:02:19;5.60;;;5.20;;
60292;SDS011;52402;52.670;6.750;2023-08-20T10:04:45;5.95;;;5.55;;
60292;SDS011;52402;52.670;6.750;2023-08-20T10:07:11;5.80;;;5.40;;
60292;SDS011;52402;52.670;6.750;2023-08-20T10:09:38;6.03;;;5.63;;
60292;SDS011;52402;52.670;6.750;2023-08-20T10:12:05;6.38;;;5.97;;
60292;SDS011;52402;52.670;6.750;2023-08-20T10:14:31;6.63;;;6.22;;
60292;SDS011;52402;52.670;6.750;2023-08-20T10:16:57;6.25;;;5.85;;
60292;SDS011;52402;52.670;6.750;2023-08-20T10:19:23;6.43;;;6.03;;
60292;SDS011;52402;52.670;6.750;2023-08-20T10:21:52;6.43;;;6.03;;
60292;SDS011;52402;52.670;6.750;2023-08-20T10:24:18;6.95;;;6.55;;
60292;SDS011;52402;52.670;6.750;2023-08-20T10:26:48;7.38;;;6.90;;
60292;SDS011;52402;52.670;6.750;2023-08-20T10:32:13;7.30;;;6.85;;
60292;SDS011;52402;52.670;6.750;2023-08-20T10:34:42;7.65;;;7.15;;
60292;SDS011;52402;52.670;6.750;2023-08-20T10:37:09;7.57;;;7.07;;
60292;SDS011;52402;52.670;6.750;2023-08-20T10:39:35;7.05;;;6.65;;
60292;SDS011;52402;52.670;6.750;2023-08-20T10:42:08;6.90;;;6.50;;
60292;SDS011;52402;52.670;6.750;2023-08-20T10:44:58;6.90;;;6.50;;
60292;SDS011;52402;52.670;6.750;2023-08-20T10:47:24;7.32;;;6.93;;
60292;SDS011;52402;52.670;6.750;2023-08-20T10:49:53;8.20;;;7.70;;
60292;SDS011;52402;52.670;6.750;2023-08-20T10:52:20;7.70;;;7.20;;
60292;SDS011;52402;52.670;6.750;2023-08-20T10:54:50;8.25;;;7.75;;
60292;SDS011;52402;52.670;6.750;2023-08-20T10:57:17;9.30;;;8.80;;
60292;SDS011;52402;52.670;6.750;2023-08-20T10:59:50;8.23;;;7.72;;
60292;SDS011;52402;52.670;6.750;2023-08-20T11:02:23;8.95;;;8.45;;
60292;SDS011;52402;52.670;6.750;2023-08-20T11:04:49;8.82;;;8.32;;
60292;SDS011;52402;52.670;6.750;2023-08-20T11:07:17;9.70;;;9.20;;
60292;SDS011;52402;52.670;6.750;2023-08-20T11:09:43;10.18;;;9.57;;
60292;SDS011;52402;52.670;6.750;2023-08-20T11:12:14;9.80;;;9.30;;
60292;SDS011;52402;52.670;6.750;2023-08-20T11:14:40;10.63;;;10.03;;
60292;SDS011;52402;52.670;6.750;2023-08-20T11:17:06;9.35;;;8.85;;
60292;SDS011;52402;52.670;6.750;2023-08-20T11:19:33;9.63;;;9.13;;
60292;SDS011;52402;52.670;6.750;2023-08-20T11:21:58;10.15;;;9.55;;
60292;SDS011;52402;52.670;6.750;2023-08-20T11:24:28;9.85;;;9.35;;
60292;SDS011;52402;52.670;6.750;2023-08-20T11:29:22;10.23;;;9.63;;
60292;SDS011;52402;52.670;6.750;2023-08-20T11:31:50;10.30;;;9.70;;
60292;SDS011;52402;52.670;6.750;2023-08-20T11:34:16;10.45;;;9.85;;
60292;SDS011;52402;52.670;6.750;2023-08-20T11:36:43;10.50;;;9.90;;
60292;SDS011;52402;52.670;6.750;2023-08-20T11:39:09;11.93;;;11.32;;
60292;SDS011;52402;52.670;6.750;2023-08-20T11:41:38;11.02;;;10.43;;
60292;SDS011;52402;52.670;6.750;2023-08-20T11:44:05;11.10;;;10.50;;
60292;SDS011;52402;52.670;6.750;2023-08-20T11:46:33;11.15;;;10.55;;
60292;SDS011;52402;52.670;6.750;2023-08-20T11:49:07;11.60;;;11.00;;
60292;SDS011;52402;52.670;6.750;2023-08-20T11:51:41;12.07;;;11.48;;
60292;SDS011;52402;52.670;6.750;2023-08-20T11:54:09;10.95;;;10.35;;
60292;SDS011;52402;52.670;6.750;2023-08-20T11:56:42;13.43;;;12.73;;
60292;SDS011;52402;52.670;6.750;2023-08-20T11:59:10;13.40;;;12.70;;
60292;SDS011;52402;52.670;6.750;2023-08-20T12:01:36;12.85;;;12.15;;
60292;SDS011;52402;52.670;6.750;2023-08-20T12:04:05;13.32;;;12.63;;
60292;SDS011;52402;52.670;6.750;2023-08-20T12:06:33;13.18;;;12.48;;
60292;SDS011;52402;52.670;6.750;2023-08-20T12:08:59;13.40;;;12.70;;
60292;SDS011;52402;52.670;6.750;2023-08-20T12:11:29;14.30;;;13.60;;
60292;SDS011;52402;52.670;6.750;2023-08-20T12:16:24;15.27;;;14.52;;
60292;SDS011;52402;52.670;6.750;2023-08-20T12:18:50;15.57;;;14.77;;
60292;SDS011;52402;52.670;6.750;2023-08-20T12:21:17;14.48;;;13.77;;
60292;SDS011;52402;52.670;6.750;2023-08-20T12:23:43;14.82;;;14.13;;
60292;SDS011;52402;52.670;6.750;2023-08-20T12:26:09;15.05;;;14.35;;
60292;SDS011;52402;52.670;6.750;2023-08-20T12:28:34;14.60;;;13.90;;
60292;SDS011;52402;52.670;6.750;2023-08-20T12:31:00;12.20;;;11.60;;
60292;SDS011;52402;52.670;6.750;2023-08-20T12:33:26;13.68;;;12.98;;
60292;SDS011;52402;52.670;6.750;2023-08-20T12:35:53;12.25;;;11.65;;
60292;SDS011;52402;52.670;6.750;2023-08-20T12:38:20;13.63;;;12.93;;
60292;SDS011;52402;52.670;6.750;2023-08-20T12:40:45;14.20;;;13.50;;
60292;SDS011;52402;52.670;6.750;2023-08-20T12:43:11;14.35;;;13.65;;
60292;SDS011;52402;52.670;6.750;2023-08-20T12:45:36;12.45;;;11.82;;
60292;SDS011;52402;52.670;6.750;2023-08-20T12:48:03;11.98;;;11.38;;
60292;SDS011;52402;52.670;6.750;2023-08-20T12:50:29;11.35;;;10.75;;
60292;SDS011;52402;52.670;6.750;2023-08-20T12:52:55;13.38;;;12.68;;
60292;SDS011;52402;52.670;6.750;2023-08-20T12:55:21;11.70;;;11.10;;
60292;SDS011;52402;52.670;6.750;2023-08-20T12:57:52;14.60;;;13.90;;
60292;SDS011;52402;52.670;6.750;2023-08-20T13:00:22;13.30;;;12.60;;
60292;SDS011;52402;52.670;6.750;2023-08-20T13:02:50;13.43;;;12.73;;
60292;SDS011;52402;52.670;6.750;2023-08-20T13:05:16;14.75;;;14.05;;
60292;SDS011;52402;52.670;6.750;2023-08-20T13:07:42;14.50;;;13.80;;
60292;SDS011;52402;52.670;6.750;2023-08-20T13:10:08;14.80;;;14.10;;
60292;SDS011;52402;52.670;6.750;2023-08-20T13:12:34;14.30;;;13.60;;
60292;SDS011;52402;52.670;6.750;2023-08-20T13:15:01;14.05;;;13.35;;
60292;SDS011;52402;52.670;6.750;2023-08-20T13:17:28;14.80;;;14.10;;
60292;SDS011;52402;52.670;6.750;2023-08-20T13:19:55;15.13;;;14.43;;
60292;SDS011;52402;52.670;6.750;2023-08-20T13:22:21;15.55;;;14.75;;
60292;SDS011;52402;52.670;6.750;2023-08-20T13:24:47;13.82;;;13.13;;
60292;SDS011;52402;52.670;6.750;2023-08-20T13:27:12;15.25;;;14.50;;
60292;SDS011;52402;52.670;6.750;2023-08-20T13:29:39;14.95;;;14.25;;
60292;SDS011;52402;52.670;6.750;2023-08-20T13:32:05;15.70;;;14.90;;
60292;SDS011;52402;52.670;6.750;2023-08-20T13:34:31;12.90;;;12.20;;
60292;SDS011;52402;52.670;6.750;2023-08-20T13:36:57;14.10;;;13.40;;
60292;SDS011;52402;52.670;6.750;2023-08-20T13:39:22;14.93;;;14.23;;
60292;SDS011;52402;52.670;6.750;2023-08-20T13:41:48;14.68;;;13.98;;
60292;SDS011;52402;52.670;6.750;2023-08-20T13:44:15;14.82;;;14.13;;
60292;SDS011;52402;52.670;6.750;2023-08-20T13:46:40;14.55;;;13.85;;
60292;SDS011;52402;52.670;6.750;2023-08-20T13:49:06;14.25;;;13.55;;
60292;SDS011;52402;52.670;6.750;2023-08-20T13:51:32;14.30;;;13.60;;
60292;SDS011;52402;52.670;6.750;2023-08-20T13:53:57;14.82;;;14.13;;
60292;SDS011;52402;52.670;6.750;2023-08-20T13:56:23;13.95;;;13.25;;
60292;SDS011;52402;52.670;6.750;2023-08-20T13:58:52;13.02;;;12.32;;
60292;SDS011;52402;52.670;6.750;2023-08-20T14:01:18;12.35;;;11.75;;
60292;SDS011;52402;52.670;6.750;2023-08-20T14:03:43;13.18;;;12.48;;
60292;SDS011;52402;52.670;6.750;2023-08-20T14:06:09;13.45;;;12.75;;
60292;SDS011;52402;52.670;6.750;2023-08-20T14:08:35;13.00;;;12.30;;
60292;SDS011;52402;52.670;6.750;2023-08-20T14:11:00;13.13;;;12.43;;
60292;SDS011;52402;52.670;6.750;2023-08-20T14:13:26;13.75;;;13.05;;
60292;SDS011;52402;52.670;6.750;2023-08-20T14:15:51;13.90;;;13.20;;
60292;SDS011;52402;52.670;6.750;2023-08-20T14:18:17;13.23;;;12.52;;
60292;SDS011;52402;52.670;6.750;2023-08-20T14:20:43;13.13;;;12.43;;
60292;SDS011;52402;52.670;6.750;2023-08-20T14:23:08;12.55;;;11.93;;
60292;SDS011;52402;52.670;6.750;2023-08-20T14:25:34;13.23;;;12.52;;
60292;SDS011;52402;52.670;6.750;2023-08-20T14:28:00;12.50;;;11.90;;
60292;SDS011;52402;52.670;6.750;2023-08-20T14:30:25;12.18;;;11.57;;
60292;SDS011;52402;52.670;6.750;2023-08-20T14:32:52;12.95;;;12.25;;
60292;SDS011;52402;52.670;6.750;2023-08-20T14:35:19;12.52;;;11.90;;
60292;SDS011;52402;52.670;6.750;2023-08-20T14:37:44;12.90;;;12.20;;
60292;SDS011;52402;52.670;6.750;2023-08-20T14:40:10;12.70;;;12.00;;
60292;SDS011;52402;52.670;6.750;2023-08-20T14:42:36;12.88;;;12.18;;
60292;SDS011;52402;52.670;6.750;2023-08-20T14:45:02;12.50;;;11.90;;
60292;SDS011;52402;52.670;6.750;2023-08-20T14:47:29;12.30;;;11.70;;
60292;SDS011;52402;52.670;6.750;2023-08-20T14:49:56;12.00;;;11.40;;
60292;SDS011;52402;52.670;6.750;2023-08-20T14:52:21;12.13;;;11.52;;
60292;SDS011;52402;52.670;6.750;2023-08-20T14:54:47;12.63;;;11.98;;
60292;SDS011;52402;52.670;6.750;2023-08-20T14:57:13;11.80;;;11.20;;
60292;SDS011;52402;52.670;6.750;2023-08-20T14:59:40;11.35;;;10.75;;
60292;SDS011;52402;52.670;6.750;2023-08-20T15:02:06;11.88;;;11.27;;
60292;SDS011;52402;52.670;6.750;2023-08-20T15:04:31;11.65;;;11.05;;
60292;SDS011;52402;52.670;6.750;2023-08-20T15:06:57;11.32;;;10.73;;